Time;durP1;ratioP1;P1;durP2;ratioP2;P2;SDS_P1;SDS_P2;PMS_P1;PMS_P2;Temp;Humidity;BMP_temperature;BMP_pressure;BME280_temperature;BME280_humidity;BME280_pressure;Samples;Min_cycle;Max_cycle;Signal;HPM_P1;HPM_P2
2022/08/03 00:01:10;;;;;;;4.77;2.40;;;25.20;55.40;;;-142.21;63.46;112049.66;5112449;28;20283;-71
2022/08/03 00:03:37;;;;;;;3.40;2.00;;;25.20;55.30;;;-142.21;64.31;112049.66;5112738;28;20204;-71
2022/08/03 00:06:04;;;;;;;2.50;2.30;;;25.10;55.50;;;-142.21;64.32;112049.66;5112514;28;20278;-72
2022/08/03 00:08:31;;;;;;;3.60;2.60;;;25.10;55.50;;;-142.21;64.32;112049.66;5110001;28;20275;-72
2022/08/03 00:10:58;;;;;;;2.97;2.73;;;25.00;55.30;;;-142.21;64.41;112049.66;5112793;28;20202;-72
2022/08/03 00:13:28;;;;;;;2.87;2.53;;;25.10;55.50;;;-142.21;64.88;112049.66;5111482;28;20200;-72
2022/08/03 00:15:55;;;;;;;2.30;2.10;;;25.00;55.60;;;-142.21;64.81;112049.66;5100095;28;20590;-72
2022/08/03 00:18:22;;;;;;;3.23;2.53;;;25.00;55.60;;;-142.21;64.81;112049.66;5112561;28;20200;-72
2022/08/03 00:20:49;;;;;;;2.40;2.20;;;25.00;55.60;;;-142.21;65.69;112049.66;5113137;28;20257;-72
2022/08/03 00:23:17;;;;;;;2.67;2.47;;;25.00;55.90;;;-142.21;66.08;112049.66;5108665;28;20228;-72
2022/08/03 00:25:44;;;;;;;3.70;2.47;;;24.90;56.10;;;-142.21;67.07;112049.66;5112392;28;20202;-72
2022/08/03 00:28:11;;;;;;;2.57;2.37;;;24.90;56.10;;;-142.21;66.98;112049.66;5110729;28;20694;-71
2022/08/03 00:30:40;;;;;;;2.97;2.30;;;24.80;56.20;;;-142.21;66.79;112049.66;5112870;28;20523;-71
2022/08/03 00:33:10;;;;;;;2.47;2.27;;;24.80;56.90;;;-142.21;66.97;112049.66;5113081;28;20200;-72
2022/08/03 00:35:39;;;;;;;2.10;2.00;;;24.70;56.90;;;-142.21;67.33;112049.66;5112751;28;20282;-71
2022/08/03 00:38:06;;;;;;;2.77;2.57;;;24.70;56.50;;;-142.21;67.45;112049.66;5112014;28;20233;-71
2022/08/03 00:40:34;;;;;;;2.40;2.20;;;24.60;56.60;;;-142.21;67.04;112049.66;5110527;28;20660;-72
2022/08/03 00:43:04;;;;;;;4.80;2.70;;;24.60;56.60;;;-142.21;67.05;112049.66;5112551;28;20192;-72
2022/08/03 00:45:33;;;;;;;2.40;2.20;;;24.50;56.50;;;-142.21;66.79;112049.66;5112309;28;20524;-71
2022/08/03 00:48:04;;;;;;;2.83;2.50;;;24.50;56.40;;;-142.21;66.92;112049.66;5112119;28;20310;-71
2022/08/03 00:50:34;;;;;;;2.57;2.33;;;24.50;56.50;;;-142.21;66.89;112049.66;5112264;28;20200;-71
2022/08/03 00:53:05;;;;;;;2.50;2.30;;;24.40;56.50;;;-142.21;67.06;112049.66;5112342;28;20227;-72
2022/08/03 00:55:33;;;;;;;2.47;2.27;;;24.40;56.50;;;-142.21;67.19;112049.66;5111749;28;20204;-71
2022/08/03 00:58:05;;;;;;;2.50;2.30;;;24.40;56.50;;;-142.21;67.01;112049.66;5111690;28;20669;-71
2022/08/03 01:00:37;;;;;;;2.50;2.30;;;24.40;56.50;;;-142.21;67.58;112049.66;5111887;28;20203;-71
2022/08/03 01:03:07;;;;;;;2.53;2.33;;;24.30;56.60;;;-142.21;67.70;112049.66;5112946;28;20278;-71
2022/08/03 01:05:44;;;;;;;3.07;2.77;;;24.30;56.80;;;-142.21;67.94;112049.66;5112199;28;20208;-71
2022/08/03 01:08:23;;;;;;;2.57;2.37;;;24.30;56.80;;;-142.21;68.08;112049.66;5111358;28;20648;-71
2022/08/03 01:11:01;;;;;;;3.80;2.40;;;24.30;56.80;;;-142.21;68.30;112049.66;5112731;28;20539;-71
2022/08/03 01:13:37;;;;;;;3.23;2.47;;;24.20;56.80;;;-142.21;68.60;112049.66;5110767;28;20195;-71
2022/08/03 01:16:13;;;;;;;4.17;2.60;;;24.20;56.80;;;-142.21;68.19;112049.66;5111908;28;20282;-70
2022/08/03 01:18:50;;;;;;;3.37;2.73;;;24.20;56.80;;;-142.21;68.84;112049.66;5112446;28;20216;-72
2022/08/03 01:21:26;;;;;;;2.67;2.47;;;24.20;57.00;;;-142.21;69.30;112049.66;5111394;28;20286;-72
2022/08/03 01:24:11;;;;;;;2.57;2.27;;;24.10;57.10;;;-142.21;69.62;112049.66;5101278;28;20237;-72
2022/08/03 01:26:59;;;;;;;2.80;2.60;;;24.10;57.30;;;-142.21;70.30;112049.66;5098370;28;20525;-72
2022/08/03 01:30:09;;;;;;;2.87;2.67;;;24.10;57.60;;;-142.21;70.44;112049.66;5057293;28;20206;-71
2022/08/03 01:32:48;;;;;;;2.97;2.63;;;24.10;57.90;;;-142.21;70.44;112049.66;5109525;28;20667;-72
2022/08/03 01:35:22;;;;;;;3.53;2.57;;;24.00;57.70;;;-142.21;70.45;112049.66;5115184;28;20203;-72
2022/08/03 01:37:57;;;;;;;3.17;2.40;;;23.90;57.60;;;-142.21;70.95;112049.66;5115401;28;20194;-71
2022/08/03 01:40:31;;;;;;;2.53;2.33;;;23.90;57.80;;;-142.21;70.99;112049.66;5115317;28;20394;-72
2022/08/03 01:43:03;;;;;;;2.87;2.53;;;23.90;57.80;;;-142.21;71.47;112049.66;5115108;28;20282;-72
2022/08/03 01:45:34;;;;;;;4.30;2.40;;;23.90;57.90;;;-142.21;71.92;112049.66;5115087;28;20553;-71
2022/08/03 01:48:02;;;;;;;3.43;2.57;;;23.80;57.80;;;-142.21;72.14;112049.66;5114349;28;20214;-71
2022/08/03 01:50:33;;;;;;;2.97;2.20;;;23.80;57.90;;;-142.21;72.32;112049.66;5114664;28;20195;-71
2022/08/03 01:53:03;;;;;;;2.97;2.60;;;23.80;58.20;;;-142.21;72.12;112049.66;5115930;28;20532;-72
2022/08/03 01:55:33;;;;;;;5.30;2.50;;;23.70;58.20;;;-142.21;72.17;112049.66;5115093;28;20203;-72
2022/08/03 01:58:03;;;;;;;4.83;2.50;;;23.70;58.10;;;-142.21;72.24;112049.66;5114620;28;20203;-72
2022/08/03 02:00:34;;;;;;;2.63;2.43;;;23.70;58.10;;;-142.21;72.16;112049.66;5114441;28;20194;-72
2022/08/03 02:03:05;;;;;;;2.93;2.73;;;23.60;58.10;;;-142.21;72.12;112049.66;5115280;28;20194;-72
2022/08/03 02:05:34;;;;;;;3.40;2.73;;;23.60;58.00;;;-142.21;72.77;112049.66;5113493;28;20207;-72
2022/08/03 02:08:04;;;;;;;3.37;2.50;;;23.60;58.20;;;-142.21;72.64;112049.66;5115367;28;20223;-72
2022/08/03 02:10:35;;;;;;;2.87;2.63;;;23.50;58.20;;;-142.21;72.92;112049.66;5120146;28;20191;-72
2022/08/03 02:13:10;;;;;;;3.00;2.67;;;23.50;58.20;;;-142.21;72.92;112049.66;5126542;28;20196;-71
2022/08/03 02:15:39;;;;;;;3.30;3.00;;;23.50;58.30;;;-142.21;72.91;112049.66;5104766;28;20221;-71
2022/08/03 02:18:09;;;;;;;3.07;2.87;;;23.40;58.20;;;-142.21;73.24;112049.66;5114990;28;20199;-71
2022/08/03 02:20:41;;;;;;;3.40;2.87;;;23.50;58.50;;;-142.21;73.48;112049.66;5110541;28;20191;-71
2022/08/03 02:23:09;;;;;;;3.70;2.80;;;23.40;58.30;;;-142.21;73.54;112049.66;5114985;28;20326;-72
2022/08/03 02:25:45;;;;;;;3.30;3.00;;;23.40;58.40;;;-142.21;73.30;112049.66;5114497;28;20216;-71
2022/08/03 02:28:19;;;;;;;2.83;2.63;;;23.40;58.50;;;-142.21;73.25;112049.66;5115155;28;20674;-71
2022/08/03 02:30:54;;;;;;;4.53;2.90;;;23.40;58.80;;;-142.21;73.51;112049.66;5111086;28;20188;-71
2022/08/03 02:33:30;;;;;;;4.37;2.80;;;23.30;58.80;;;-142.21;73.48;112049.66;5114278;28;20277;-71
2022/08/03 02:35:59;;;;;;;3.33;3.03;;;23.30;58.80;;;-142.21;73.64;112049.66;5114405;28;20198;-72
2022/08/03 02:38:33;;;;;;;3.80;3.20;;;23.30;58.80;;;-142.21;74.13;112049.66;5110029;28;20285;-71
2022/08/03 02:41:09;;;;;;;3.30;2.93;;;23.30;58.90;;;-142.21;74.28;112049.66;5113986;28;20193;-71
2022/08/03 02:43:40;;;;;;;3.20;2.90;;;23.30;59.00;;;-142.21;74.60;112049.66;5113305;28;20198;-72
2022/08/03 02:46:13;;;;;;;3.33;3.00;;;23.20;59.20;;;-142.21;74.71;112049.66;5110434;28;20185;-72
2022/08/03 02:48:43;;;;;;;3.00;2.80;;;23.20;59.30;;;-142.21;75.12;112049.66;5113360;28;20850;-71
2022/08/03 02:51:11;;;;;;;3.20;2.90;;;23.20;59.40;;;-142.21;75.17;112049.66;5114512;28;20214;-71
2022/08/03 02:53:40;;;;;;;4.10;3.03;;;23.10;59.30;;;-142.21;75.31;112049.66;5113849;28;20294;-72
2022/08/03 02:56:09;;;;;;;3.30;3.00;;;23.10;59.40;;;-142.21;75.36;112049.66;5112266;28;20196;-72
2022/08/03 02:58:42;;;;;;;3.10;2.80;;;23.10;59.30;;;-142.21;75.44;112049.66;5114017;28;20202;-72
2022/08/03 03:01:12;;;;;;;3.73;3.13;;;23.10;59.40;;;-142.21;75.83;112049.66;5114232;28;20278;-72
2022/08/03 03:03:41;;;;;;;3.10;2.90;;;23.10;59.50;;;-142.21;75.94;112049.66;5112992;28;20229;-72
2022/08/03 03:06:11;;;;;;;3.33;3.03;;;23.10;59.50;;;-142.21;75.94;112049.66;5112912;28;20196;-72
2022/08/03 03:08:39;;;;;;;3.53;3.00;;;23.10;59.50;;;-142.21;76.11;112049.66;5113251;28;20227;-72
2022/08/03 03:11:09;;;;;;;3.40;2.97;;;23.10;59.50;;;-142.21;76.45;112049.66;5113836;28;20226;-72
2022/08/03 03:13:37;;;;;;;3.17;2.87;;;23.10;59.60;;;-142.21;76.82;112049.66;5098679;28;20195;-71
2022/08/03 03:16:06;;;;;;;5.60;2.93;;;23.00;59.70;;;-142.21;76.71;112049.66;5111809;28;20200;-71
2022/08/03 03:18:38;;;;;;;2.77;2.57;;;23.00;59.80;;;-142.21;76.86;112049.66;5096957;28;20206;-71
2022/08/03 03:21:08;;;;;;;3.43;2.50;;;23.00;59.90;;;-142.21;77.31;112049.66;5113089;28;20200;-71
2022/08/03 03:23:38;;;;;;;2.93;2.53;;;22.90;59.90;;;-142.21;77.46;112049.66;5112680;28;20239;-71
2022/08/03 03:26:06;;;;;;;2.70;2.50;;;22.90;60.10;;;-142.21;77.79;112049.66;5112721;28;20204;-72
2022/08/03 03:28:36;;;;;;;2.97;2.77;;;22.90;60.00;;;-142.21;78.13;112049.66;5112854;28;20243;-71
2022/08/03 03:31:04;;;;;;;4.60;3.00;;;22.90;60.20;;;-142.21;78.39;112049.66;5104608;28;20211;-71
2022/08/03 03:33:35;;;;;;;2.90;2.60;;;22.90;60.50;;;-142.21;78.53;112049.66;5112840;28;20211;-72
2022/08/03 03:36:03;;;;;;;6.67;3.17;;;22.80;60.40;;;-142.21;78.62;112049.66;5113776;28;20195;-73
2022/08/03 03:38:32;;;;;;;3.70;2.80;;;22.80;60.40;;;-142.21;78.95;112049.66;5112798;28;20205;-71
2022/08/03 03:41:00;;;;;;;2.90;2.47;;;22.80;60.50;;;-142.21;79.24;112049.66;5061328;28;20290;-71
2022/08/03 03:43:28;;;;;;;4.13;2.80;;;22.70;60.60;;;-142.21;79.46;112049.66;5112703;28;20198;-72
2022/08/03 03:45:56;;;;;;;2.67;2.47;;;22.70;60.90;;;-142.21;79.39;112049.66;5110305;28;20203;-72
2022/08/03 03:48:25;;;;;;;4.07;2.67;;;22.70;61.00;;;-142.21;79.50;112049.66;5092321;28;20220;-72
2022/08/03 03:50:56;;;;;;;3.23;2.93;;;22.70;61.00;;;-142.21;79.29;112049.66;5100965;28;20298;-71
2022/08/03 03:53:26;;;;;;;3.40;3.10;;;22.70;61.00;;;-142.21;79.17;112049.66;5112510;28;20207;-71
2022/08/03 03:55:54;;;;;;;3.27;2.97;;;22.60;61.00;;;-142.21;79.44;112049.66;5113117;28;20191;-71
2022/08/03 03:58:21;;;;;;;3.83;3.13;;;22.60;61.10;;;-142.21;78.84;112049.66;5113114;28;20200;-71
2022/08/03 04:00:48;;;;;;;3.20;2.90;;;22.60;61.10;;;-142.21;78.60;112049.66;5109187;28;20235;-72
2022/08/03 04:03:16;;;;;;;3.73;2.63;;;22.60;61.00;;;-142.21;78.60;112049.66;5112717;28;20199;-72
2022/08/03 04:11:22;;;;;;;4.50;3.03;;;22.70;61.00;;;-142.21;78.48;112049.66;5108581;28;20657;-72
2022/08/03 04:13:55;;;;;;;5.77;3.37;;;22.70;62.10;;;-142.21;78.51;112049.66;5112680;28;20632;-71
2022/08/03 04:16:27;;;;;;;4.37;3.00;;;22.70;61.20;;;-142.21;78.90;112049.66;5102835;28;20270;-72
2022/08/03 04:19:02;;;;;;;3.73;3.30;;;22.70;61.30;;;-142.21;80.04;112049.66;5113322;28;20236;-71
2022/08/03 04:21:30;;;;;;;6.60;3.30;;;22.70;61.70;;;-142.21;80.48;112049.66;5111842;28;20188;-71
2022/08/03 04:24:03;;;;;;;3.83;2.97;;;22.60;61.80;;;-142.21;81.40;112049.66;5112263;28;20239;-72
2022/08/03 04:26:36;;;;;;;4.63;3.10;;;22.60;62.30;;;-142.21;80.50;112049.66;5096229;28;20188;-71
2022/08/03 04:29:09;;;;;;;3.80;3.07;;;22.60;61.90;;;-142.21;80.01;112049.66;5060877;28;20215;-72
2022/08/03 04:31:39;;;;;;;3.83;3.20;;;22.60;61.70;;;-142.21;79.91;112049.66;5105488;28;20188;-72
2022/08/03 04:34:10;;;;;;;3.77;3.47;;;22.70;62.30;;;-142.21;81.40;112049.66;5110204;28;20287;-72
2022/08/03 04:36:57;;;;;;;3.70;3.30;;;22.60;62.00;;;-142.21;82.54;112049.66;5110077;28;20595;-71
2022/08/03 04:39:31;;;;;;;3.30;3.00;;;22.70;63.30;;;-142.21;83.21;112049.66;5111927;28;20227;-72
2022/08/03 04:42:04;;;;;;;4.87;4.00;;;22.70;63.00;;;-142.21;82.78;112049.66;5112851;28;20291;-72
2022/08/03 04:44:36;;;;;;;3.93;3.37;;;22.60;63.00;;;-142.21;81.53;112049.66;5107572;28;20192;-72
2022/08/03 04:47:03;;;;;;;5.57;3.77;;;22.70;62.50;;;-142.21;82.66;112049.66;5112838;28;20211;-71
2022/08/03 04:49:32;;;;;;;5.23;4.33;;;22.70;62.90;;;-142.21;83.31;112049.66;5111985;28;20577;-71
2022/08/03 04:51:59;;;;;;;3.57;3.23;;;22.60;63.10;;;-142.21;82.97;112049.66;5112137;28;20302;-71
2022/08/03 04:54:28;;;;;;;5.83;4.13;;;22.70;63.10;;;-142.21;83.71;112049.66;5111874;28;20200;-71
2022/08/03 04:56:55;;;;;;;7.33;3.97;;;22.70;63.40;;;-142.21;84.64;112049.66;5112823;28;20290;-71
2022/08/03 04:59:22;;;;;;;6.73;3.90;;;22.70;64.50;;;-142.21;85.15;112049.66;5112514;28;20234;-71
2022/08/03 05:01:49;;;;;;;7.97;4.40;;;22.70;64.00;;;-142.21;86.06;112049.66;5112125;28;20206;-71
2022/08/03 05:04:19;;;;;;;7.87;4.53;;;22.70;65.30;;;-142.21;86.57;112049.66;5112270;28;20206;-71
2022/08/03 05:06:46;;;;;;;5.03;3.80;;;22.70;64.90;;;-142.21;85.54;112049.66;5114262;28;20199;-71
2022/08/03 05:09:13;;;;;;;4.63;3.33;;;22.70;64.40;;;-142.21;84.90;112049.66;5115180;28;20296;-71
2022/08/03 05:11:44;;;;;;;14.37;4.10;;;22.70;64.10;;;-142.21;85.78;112049.66;5115806;28;20283;-72
2022/08/03 05:14:11;;;;;;;3.50;3.20;;;22.70;64.50;;;-142.21;84.76;112049.66;5115894;28;20629;-71
2022/08/03 05:16:38;;;;;;;4.03;3.10;;;22.80;63.90;;;-142.21;83.63;112049.66;5115814;28;20210;-71
2022/08/03 05:19:05;;;;;;;3.97;3.43;;;22.90;63.70;;;-142.21;83.25;112049.66;5115866;28;20204;-71
2022/08/03 05:21:32;;;;;;;3.73;2.97;;;22.90;63.20;;;-142.21;82.49;112049.66;5115470;28;20199;-71
2022/08/03 05:23:59;;;;;;;4.47;3.40;;;22.90;62.70;;;-142.21;82.24;112049.66;5113824;28;20235;-71
2022/08/03 05:26:27;;;;;;;3.50;3.20;;;23.00;62.70;;;-142.21;82.09;112049.66;5115643;28;20199;-71
2022/08/03 05:28:55;;;;;;;3.27;2.97;;;23.00;62.50;;;-142.21;81.78;112049.66;5115992;28;20243;-71
2022/08/03 05:31:22;;;;;;;5.27;3.27;;;23.10;62.40;;;-142.21;80.93;112049.66;5115941;28;20206;-71
2022/08/03 05:33:49;;;;;;;3.27;2.97;;;23.10;62.20;;;-142.21;81.13;112049.66;5114992;28;20205;-71
2022/08/03 05:36:16;;;;;;;3.57;2.93;;;23.20;62.20;;;-142.21;80.53;112049.66;5116421;28;20225;-70
2022/08/03 05:38:44;;;;;;;5.57;2.90;;;23.30;61.90;;;-142.21;81.38;112049.66;5122854;28;20275;-70
2022/08/03 05:41:11;;;;;;;4.00;3.13;;;23.40;62.30;;;-142.21;80.17;112049.66;5113148;28;20293;-71
2022/08/03 05:43:39;;;;;;;6.77;2.90;;;23.40;61.90;;;-142.21;79.87;112049.66;5118648;28;20210;-69
2022/08/03 05:46:07;;;;;;;4.40;3.00;;;23.50;61.60;;;-142.21;79.10;112049.66;5115974;28;20724;-70
2022/08/03 05:48:34;;;;;;;5.87;3.53;;;23.60;61.30;;;-142.21;78.06;112049.66;5114672;28;20257;-71
2022/08/03 05:51:03;;;;;;;4.00;2.50;;;23.70;60.70;;;-142.21;77.14;112049.66;5115364;28;20204;-70
2022/08/03 05:53:34;;;;;;;7.63;3.27;;;23.80;60.50;;;-142.21;77.33;112049.66;5115086;28;20275;-70
2022/08/03 05:56:02;;;;;;;4.90;3.03;;;23.80;60.30;;;-142.21;76.63;112049.66;5112430;28;20274;-70
2022/08/03 05:58:29;;;;;;;2.90;2.60;;;24.00;60.20;;;-142.21;75.63;112049.66;5108491;28;20282;-70
2022/08/03 06:00:56;;;;;;;5.07;2.70;;;24.10;59.90;;;-142.21;74.77;112049.66;5107312;28;20548;-70
2022/08/03 06:03:24;;;;;;;3.27;2.33;;;24.20;59.50;;;-142.21;74.06;112049.66;5115318;28;20291;-70
2022/08/03 06:05:53;;;;;;;3.03;2.33;;;24.30;59.90;;;-142.21;72.09;112049.66;5113666;28;20290;-70
2022/08/03 06:08:20;;;;;;;5.10;2.60;;;24.40;58.80;;;-142.21;71.11;112049.66;5114629;28;20317;-70
2022/08/03 06:10:50;;;;;;;9.20;2.93;;;24.50;58.40;;;-142.21;71.22;112049.66;5113550;28;20199;-70
2022/08/03 06:13:17;;;;;;;4.87;3.00;;;24.60;58.30;;;-142.21;71.55;112049.66;5109929;28;20278;-70
2022/08/03 06:15:44;;;;;;;4.47;2.70;;;24.70;58.30;;;-142.21;71.33;112049.66;5113782;28;20245;-69
2022/08/03 06:18:11;;;;;;;2.77;2.30;;;24.80;58.30;;;-142.21;70.63;112049.66;5114496;28;20199;-69
2022/08/03 06:20:40;;;;;;;4.27;2.60;;;24.90;58.10;;;-142.21;71.50;112049.66;5114171;28;20214;-69
2022/08/03 06:23:10;;;;;;;5.20;2.63;;;24.90;58.10;;;-142.21;70.50;112049.66;5109053;28;20231;-68
2022/08/03 06:25:37;;;;;;;4.17;2.93;;;25.00;58.00;;;-142.21;70.21;112049.66;5113594;28;20249;-68
2022/08/03 06:28:05;;;;;;;2.73;2.50;;;25.10;57.70;;;-142.21;69.47;112049.66;5113057;28;20192;-68
2022/08/03 06:30:32;;;;;;;2.93;2.50;;;25.10;57.40;;;-142.21;67.73;112049.66;5111341;28;20458;-67
2022/08/03 06:32:59;;;;;;;4.73;2.60;;;25.20;56.90;;;-142.21;66.67;112049.66;5114466;28;20639;-68
2022/08/03 06:35:27;;;;;;;2.90;2.70;;;25.30;56.40;;;-142.21;66.93;112049.66;5106985;28;20219;-69
2022/08/03 06:37:56;;;;;;;2.50;2.30;;;25.40;56.50;;;-142.21;66.85;112049.66;5098947;28;20201;-67
2022/08/03 06:40:29;;;;;;;3.00;2.80;;;25.40;56.30;;;-142.21;67.70;112049.66;5102391;28;20200;-68
2022/08/03 06:42:57;;;;;;;2.50;2.30;;;25.50;56.60;;;-142.21;66.56;112049.66;5093783;28;20279;-69
2022/08/03 06:45:25;;;;;;;2.97;2.27;;;25.60;56.20;;;-142.21;66.87;112049.66;5093431;28;20204;-68
2022/08/03 06:48:02;;;;;;;4.93;2.70;;;25.70;56.30;;;-142.21;66.02;112049.66;5093227;28;20208;-68
2022/08/03 06:50:30;;;;;;;4.67;2.37;;;25.70;55.90;;;-142.21;63.71;112049.66;5093432;28;20211;-68
2022/08/03 06:52:59;;;;;;;2.63;2.43;;;25.90;55.50;;;-142.21;63.83;112049.66;5093427;28;20295;-67
2022/08/03 06:55:26;;;;;;;3.67;2.60;;;26.00;55.40;;;-142.21;63.59;112049.66;5093538;28;20200;-67
2022/08/03 06:57:54;;;;;;;3.40;2.50;;;26.10;55.20;;;-142.21;63.81;112049.66;5092966;28;20238;-67
2022/08/03 07:00:21;;;;;;;5.33;2.30;;;26.20;55.80;;;-142.21;61.71;112049.66;5093377;28;20284;-69
2022/08/03 07:02:49;;;;;;;3.37;2.60;;;26.30;54.60;;;-142.21;63.21;112049.66;5092907;28;20254;-67
2022/08/03 07:05:18;;;;;;;2.97;2.50;;;26.40;54.80;;;-142.21;62.10;112049.66;5093559;28;20237;-68
2022/08/03 07:07:45;;;;;;;2.87;2.60;;;26.50;54.60;;;-142.21;60.44;112049.66;5092303;28;20296;-68
2022/08/03 07:10:14;;;;;;;2.50;2.30;;;26.50;54.00;;;-142.21;59.79;112049.66;5096621;28;20304;-68
2022/08/03 07:12:41;;;;;;;2.83;2.63;;;26.60;53.80;;;-142.21;59.79;112049.66;5113009;28;20203;-68
2022/08/03 07:15:09;;;;;;;2.40;2.20;;;26.70;53.80;;;-142.21;59.62;112049.66;5113209;28;20207;-69
2022/08/03 07:17:36;;;;;;;3.10;2.80;;;26.80;53.60;;;-142.21;57.95;112049.66;5112852;28;20210;-68
2022/08/03 07:20:12;;;;;;;2.80;2.60;;;26.90;53.10;;;-142.21;57.98;112049.66;5113616;28;20203;-68
2022/08/03 07:22:39;;;;;;;6.67;2.57;;;27.00;53.10;;;-142.21;56.59;112049.66;5112472;28;20191;-69
2022/08/03 07:25:07;;;;;;;4.13;2.33;;;27.10;52.70;;;-142.21;58.07;112049.66;5113105;28;20246;-68
2022/08/03 07:27:37;;;;;;;2.50;2.30;;;27.20;52.90;;;-142.21;57.76;112049.66;5112521;28;20204;-69
2022/08/03 07:30:08;;;;;;;3.00;2.13;;;27.30;52.70;;;-142.21;57.35;112049.66;5112705;28;20223;-68
2022/08/03 07:32:35;;;;;;;2.60;2.40;;;27.40;52.60;;;-142.21;57.14;112049.66;5112862;28;20210;-69
2022/08/03 07:35:03;;;;;;;3.20;2.90;;;27.50;52.50;;;-142.21;56.66;112049.66;5113488;28;20230;-69
2022/08/03 07:37:31;;;;;;;2.43;2.23;;;27.60;52.30;;;-142.21;52.31;112049.66;5112676;28;20254;-68
2022/08/03 07:40:00;;;;;;;2.80;2.30;;;27.70;51.30;;;-142.21;51.54;112049.66;5112982;28;20232;-69
2022/08/03 07:42:28;;;;;;;3.67;2.40;;;27.70;51.20;;;-142.21;53.09;112049.66;5112895;28;20295;-68
2022/08/03 07:44:56;;;;;;;3.00;2.40;;;27.90;51.60;;;-142.21;53.89;112049.66;5112375;28;20204;-69
2022/08/03 07:47:30;;;;;;;2.93;2.43;;;28.00;51.60;;;-142.21;52.92;112049.66;5113104;28;20250;-68
2022/08/03 07:50:01;;;;;;;2.40;2.20;;;28.20;51.20;;;-142.21;53.61;112049.66;5112080;28;20295;-68
2022/08/03 07:55:13;;;;;;;3.00;2.70;;;28.40;51.30;;;-142.21;50.14;112049.66;5112699;28;20741;-69
2022/08/03 07:57:40;;;;;;;2.50;2.20;;;28.60;50.70;;;-142.21;49.93;112049.66;5112238;28;20288;-69
2022/08/03 08:00:16;;;;;;;4.43;2.43;;;28.70;50.20;;;-142.21;50.38;112049.66;5112532;28;20685;-68
2022/08/03 08:02:44;;;;;;;4.13;2.10;;;28.80;50.10;;;-142.21;50.42;112049.66;5112251;28;20201;-67
2022/08/03 08:05:12;;;;;;;4.07;2.40;;;28.80;49.90;;;-142.21;50.32;112049.66;5112377;28;20206;-68
2022/08/03 08:07:39;;;;;;;4.73;2.20;;;28.90;50.00;;;-142.21;50.85;112049.66;5111451;28;20201;-68
2022/08/03 08:10:09;;;;;;;4.57;2.70;;;29.00;50.50;;;-142.21;49.87;112049.66;5112314;28;20772;-68
2022/08/03 08:12:37;;;;;;;4.20;2.60;;;29.10;49.70;;;-142.21;49.50;112049.66;5112073;28;20209;-69
2022/08/03 08:15:07;;;;;;;3.40;2.43;;;29.20;49.50;;;-142.21;50.08;112049.66;5112804;28;20570;-68
2022/08/03 08:17:44;;;;;;;2.50;2.30;;;29.30;49.60;;;-142.21;50.00;112049.66;5112379;28;20205;-68
2022/08/03 08:20:16;;;;;;;3.20;2.40;;;29.50;49.50;;;-142.21;48.90;112049.66;5112235;28;20221;-68
2022/08/03 08:22:46;;;;;;;2.60;2.20;;;29.50;49.20;;;-142.21;47.58;112049.66;5111667;28;20232;-70
2022/08/03 08:25:14;;;;;;;2.70;2.37;;;29.70;48.70;;;-142.21;48.22;112049.66;5112705;28;20187;-68
2022/08/03 08:27:44;;;;;;;3.63;2.40;;;29.80;48.80;;;-142.21;47.00;112049.66;5111975;28;20648;-68
2022/08/03 08:30:14;;;;;;;2.93;2.60;;;29.90;48.50;;;-142.21;46.54;112049.66;5112395;28;20206;-69
2022/08/03 08:32:43;;;;;;;2.37;2.17;;;30.00;48.10;;;-142.21;46.84;112049.66;5111697;28;20288;-69
2022/08/03 08:35:11;;;;;;;4.73;2.40;;;30.10;48.60;;;-142.21;45.36;112049.66;5112382;28;20662;-68
2022/08/03 08:37:39;;;;;;;3.00;2.70;;;30.20;47.70;;;-142.21;46.06;112049.66;5111829;28;20291;-68
2022/08/03 08:40:08;;;;;;;4.00;2.30;;;30.20;47.70;;;-142.21;46.58;112049.66;5113718;28;20234;-68
2022/08/03 08:42:38;;;;;;;3.57;2.40;;;30.40;47.80;;;-142.21;46.78;112049.66;5116742;28;20294;-69
2022/08/03 08:45:08;;;;;;;3.93;2.23;;;30.50;48.00;;;-142.21;45.43;112049.66;5116623;28;20263;-67
2022/08/03 08:47:41;;;;;;;3.70;2.27;;;30.60;47.60;;;-142.21;45.31;112049.66;5116360;28;20210;-68
2022/08/03 08:50:11;;;;;;;3.50;2.33;;;30.80;47.60;;;-142.21;44.19;112049.66;5115856;28;20247;-68
2022/08/03 08:52:41;;;;;;;2.30;2.07;;;30.90;47.00;;;-142.21;44.51;112049.66;5115824;28;20244;-68
2022/08/03 08:55:13;;;;;;;2.73;2.50;;;31.00;47.10;;;-142.21;44.72;112049.66;5116318;28;20195;-68
2022/08/03 08:57:48;;;;;;;4.67;2.63;;;31.10;47.20;;;-142.21;43.82;112049.66;5115602;28;20196;-69
2022/08/03 09:00:17;;;;;;;4.13;2.77;;;31.20;46.70;;;-142.21;43.03;112049.66;5116447;28;20228;-69
2022/08/03 09:02:46;;;;;;;2.43;2.10;;;31.30;46.30;;;-142.21;42.42;112049.66;5115596;28;20210;-68
2022/08/03 09:05:17;;;;;;;2.70;2.50;;;31.40;46.10;;;-142.21;41.33;112049.66;5115572;28;20195;-70
2022/08/03 09:07:47;;;;;;;3.63;2.40;;;31.50;45.50;;;-142.21;39.87;112049.66;5115365;28;20191;-68
2022/08/03 09:10:20;;;;;;;2.37;2.07;;;31.60;44.70;;;-142.21;41.28;112049.66;5116234;28;20255;-68
2022/08/03 09:12:50;;;;;;;2.60;2.40;;;31.70;45.50;;;-142.21;40.76;112049.66;5115563;28;20195;-69
2022/08/03 09:15:24;;;;;;;2.40;2.20;;;31.80;45.20;;;-142.21;40.76;112049.66;5115835;27;20690;-68
2022/08/03 09:17:54;;;;;;;2.50;2.30;;;32.00;45.20;;;-142.21;40.41;112049.66;5115237;28;20280;-68
2022/08/03 09:20:26;;;;;;;2.40;2.20;;;32.10;44.80;;;-142.21;40.13;112049.66;5115530;28;20248;-68
2022/08/03 09:22:57;;;;;;;2.27;2.10;;;32.20;44.90;;;-142.21;40.23;112049.66;5115138;27;20663;-69
2022/08/03 09:25:33;;;;;;;2.20;2.00;;;32.40;44.80;;;-142.21;40.35;112049.66;5115399;28;20242;-69
2022/08/03 09:28:13;;;;;;;2.60;2.23;;;32.50;44.70;;;-142.21;37.60;112049.66;5114993;28;20187;-69
2022/08/03 09:30:43;;;;;;;1.80;1.70;;;32.60;43.10;;;-142.21;39.21;112049.66;5115136;28;20207;-69
2022/08/03 09:33:14;;;;;;;2.73;2.20;;;32.60;43.90;;;-142.21;38.57;112049.66;5115477;28;20264;-69
2022/08/03 09:35:45;;;;;;;2.30;2.07;;;32.70;43.30;;;-142.21;38.29;112049.66;5114696;28;20721;-68
2022/08/03 09:38:15;;;;;;;2.67;2.10;;;32.90;43.30;;;-142.21;39.00;112049.66;5115648;27;20196;-68
2022/08/03 09:40:44;;;;;;;3.57;2.20;;;33.00;43.50;;;-142.21;39.39;112049.66;5114789;28;20286;-69
2022/08/03 09:43:12;;;;;;;2.10;1.87;;;33.00;43.70;;;-142.21;36.62;112049.66;5115510;28;20212;-68
2022/08/03 09:45:40;;;;;;;2.17;1.97;;;33.10;41.90;;;-142.21;36.38;112049.66;5115434;28;20199;-70
2022/08/03 09:48:26;;;;;;;1.90;1.70;;;33.00;41.70;;;-142.21;35.67;112049.66;5115149;28;20316;-68
2022/08/03 09:50:58;;;;;;;2.30;2.10;;;33.00;40.50;;;-142.21;35.14;112049.66;5114304;28;20215;-70
2022/08/03 09:53:26;;;;;;;1.97;1.77;;;33.00;40.90;;;-142.21;35.17;112049.66;5114698;28;20219;-68
2022/08/03 09:55:55;;;;;;;1.90;1.80;;;33.00;41.00;;;-142.21;34.53;112049.66;5114374;28;20298;-69
2022/08/03 09:58:24;;;;;;;1.93;1.83;;;33.00;40.70;;;-142.21;35.11;112049.66;5115331;28;20236;-69
2022/08/03 10:00:59;;;;;;;2.23;2.00;;;33.10;41.30;;;-142.21;34.66;112049.66;5114342;28;20288;-69
2022/08/03 10:03:29;;;;;;;1.80;1.70;;;33.20;40.50;;;-142.21;34.64;112049.66;5114598;28;20688;-70
2022/08/03 10:05:58;;;;;;;2.50;2.30;;;33.30;40.60;;;-142.21;34.66;112049.66;5114413;28;20238;-69
2022/08/03 10:08:25;;;;;;;3.50;2.50;;;33.40;40.60;;;-142.21;34.16;112049.66;5114926;28;20624;-69
2022/08/03 10:10:53;;;;;;;2.67;1.90;;;33.50;39.80;;;-142.21;34.50;112049.66;5114289;28;20256;-69
2022/08/03 10:13:23;;;;;;;2.53;1.80;;;33.60;41.20;;;-142.21;34.05;112049.66;5114980;28;20205;-69
2022/08/03 10:15:51;;;;;;;2.10;2.00;;;33.80;40.00;;;-142.21;34.51;112049.66;5114293;28;20206;-69
2022/08/03 10:18:18;;;;;;;1.83;1.73;;;33.80;40.10;;;-142.21;34.04;112049.66;5114527;28;20208;-69
2022/08/03 10:20:51;;;;;;;2.10;1.90;;;33.90;39.60;;;-142.21;34.60;112049.66;5113837;28;20237;-69